createdAt,value
2018-12-15T00:02:11.273Z,105.77
2018-12-15T00:04:37.501Z,111.37
2018-12-15T00:07:03.762Z,118.07
2018-12-15T00:09:29.913Z,108.07
2018-12-15T00:11:56.185Z,126.17
2018-12-15T00:14:22.325Z,104.90
2018-12-15T00:16:48.470Z,92.43
2018-12-15T00:19:14.653Z,109.70
2018-12-15T00:21:40.890Z,112.83
2018-12-15T00:24:07.037Z,120.80
2018-12-15T00:26:33.379Z,130.90
2018-12-15T00:28:59.590Z,115.10
2018-12-15T00:31:25.835Z,131.00
2018-12-15T00:33:52.077Z,119.07
2018-12-15T00:36:18.193Z,107.30
2018-12-15T00:38:44.501Z,101.63
2018-12-15T00:41:10.661Z,88.97
2018-12-15T00:43:36.801Z,84.23
2018-12-15T00:46:02.982Z,82.40
2018-12-15T00:48:29.226Z,75.80
2018-12-15T00:50:55.435Z,71.17
2018-12-15T00:53:21.681Z,81.83
2018-12-15T00:55:47.837Z,72.57
2018-12-15T00:58:14.429Z,74.13
2018-12-15T01:00:41.151Z,72.97
2018-12-15T01:03:07.329Z,61.57
2018-12-15T01:05:33.492Z,62.37
2018-12-15T01:07:59.653Z,58.50
2018-12-15T01:10:25.825Z,52.00
2018-12-15T01:12:52.117Z,60.83
2018-12-15T01:15:20.446Z,68.77
2018-12-15T01:17:46.649Z,58.13
2018-12-15T01:20:12.794Z,65.70
2018-12-15T01:22:39.078Z,62.83
2018-12-15T01:25:05.307Z,63.90
2018-12-15T01:27:31.500Z,61.03
2018-12-15T01:29:57.673Z,63.63
2018-12-15T01:32:24.181Z,64.47
2018-12-15T01:34:50.314Z,63.60
2018-12-15T01:37:16.472Z,65.37
2018-12-15T01:39:42.879Z,60.97
2018-12-15T01:42:09.073Z,63.27
2018-12-15T01:44:35.332Z,70.20
2018-12-15T01:47:01.561Z,69.13
2018-12-15T01:49:27.760Z,67.43
2018-12-15T01:51:54.016Z,50.83
2018-12-15T01:54:20.468Z,62.00
2018-12-15T01:56:46.676Z,70.33
2018-12-15T01:59:12.870Z,65.63
2018-12-15T02:01:39.132Z,67.37
2018-12-15T02:04:05.359Z,73.33
2018-12-15T02:06:31.557Z,65.17
2018-12-15T02:08:57.787Z,71.03
2018-12-15T02:11:23.938Z,79.10
2018-12-15T02:13:50.072Z,76.73
2018-12-15T02:16:16.296Z,66.60
2018-12-15T02:18:42.438Z,74.27
2018-12-15T02:21:08.748Z,72.77
2018-12-15T02:23:34.978Z,79.00
2018-12-15T02:26:01.124Z,340.43
2018-12-15T02:28:27.432Z,69.87
2018-12-15T02:30:53.584Z,59.27
2018-12-15T02:33:19.733Z,47.63
2018-12-15T02:35:46.104Z,72.03
2018-12-15T02:38:12.304Z,67.97
2018-12-15T02:40:38.427Z,65.30
2018-12-15T02:43:04.570Z,61.90
2018-12-15T02:45:31.198Z,77.53
2018-12-15T02:47:57.463Z,119.57
2018-12-15T02:50:23.596Z,113.87
2018-12-15T02:52:49.915Z,95.67
2018-12-15T02:55:16.057Z,86.57
2018-12-15T02:57:42.335Z,85.80
2018-12-15T03:00:08.565Z,82.37
2018-12-15T03:02:34.829Z,82.97
2018-12-15T03:05:00.973Z,82.27
2018-12-15T03:07:27.282Z,76.37
2018-12-15T03:09:53.713Z,92.10
2018-12-15T03:12:19.944Z,74.30
2018-12-15T03:14:46.172Z,114.43
2018-12-15T03:17:12.333Z,109.83
2018-12-15T03:19:38.477Z,109.97
2018-12-15T03:22:04.824Z,90.23
2018-12-15T03:24:31.049Z,95.03
2018-12-15T03:26:57.212Z,97.00
2018-12-15T03:29:23.538Z,91.97
2018-12-15T03:31:49.729Z,86.73
2018-12-15T03:34:16.110Z,90.87
2018-12-15T03:36:42.281Z,90.83
2018-12-15T03:39:08.530Z,77.30
2018-12-15T03:41:34.757Z,79.50
2018-12-15T03:44:00.994Z,75.77
2018-12-15T03:46:27.246Z,93.97
2018-12-15T03:48:53.377Z,101.10
2018-12-15T03:51:19.571Z,94.17
2018-12-15T03:53:45.719Z,96.30
2018-12-15T03:56:11.922Z,81.67
2018-12-15T03:58:38.158Z,73.43
2018-12-15T04:01:04.337Z,75.33
2018-12-15T04:03:30.605Z,76.13
2018-12-15T04:05:56.770Z,88.27
2018-12-15T04:08:23.062Z,74.13
2018-12-15T04:10:49.292Z,82.13
2018-12-15T04:13:22.472Z,76.80
2018-12-15T04:15:48.711Z,77.10
2018-12-15T04:18:14.966Z,72.50
2018-12-15T04:20:41.195Z,65.90
2018-12-15T04:23:07.338Z,76.37
2018-12-15T04:25:33.484Z,90.47
2018-12-15T04:27:59.667Z,76.03
2018-12-15T04:30:25.873Z,76.70
2018-12-15T04:32:52.129Z,69.10
2018-12-15T04:35:18.295Z,77.53
2018-12-15T04:37:44.549Z,82.90
2018-12-15T04:40:11.037Z,89.40
2018-12-15T04:42:37.204Z,95.33
2018-12-15T04:45:04.171Z,91.40
2018-12-15T04:47:30.693Z,94.23
2018-12-15T04:49:56.951Z,83.10
2018-12-15T04:52:23.180Z,82.33
2018-12-15T04:54:49.345Z,100.00
2018-12-15T04:57:15.574Z,89.57
2018-12-15T04:59:41.829Z,89.60
2018-12-15T05:02:08.093Z,90.93
2018-12-15T05:04:34.283Z,97.97
2018-12-15T05:07:00.411Z,103.37
2018-12-15T05:09:26.552Z,93.90
2018-12-15T05:11:52.716Z,98.77
2018-12-15T05:14:18.992Z,114.33
2018-12-15T05:16:45.126Z,106.50
2018-12-15T05:19:11.448Z,99.63
2018-12-15T05:21:37.707Z,104.97
2018-12-15T05:24:03.833Z,109.57
2018-12-15T05:26:30.128Z,115.03
2018-12-15T05:28:56.368Z,118.27
2018-12-15T05:31:22.492Z,111.37
2018-12-15T05:33:48.658Z,117.50
2018-12-15T05:36:14.813Z,118.33
2018-12-15T05:38:41.067Z,108.57
2018-12-15T05:41:07.264Z,148.03
2018-12-15T05:43:33.390Z,148.47
2018-12-15T05:45:59.541Z,171.67
2018-12-15T05:48:25.705Z,168.73
2018-12-15T05:50:52.031Z,204.57
2018-12-15T05:53:18.226Z,266.83
2018-12-15T05:55:44.409Z,281.27
2018-12-15T05:58:10.715Z,239.20
2018-12-15T06:00:37.100Z,209.23
2018-12-15T06:03:03.375Z,207.57
2018-12-15T06:05:29.649Z,270.63
2018-12-15T06:07:55.831Z,304.00
2018-12-15T06:10:22.029Z,244.77
2018-12-15T06:12:48.287Z,268.47
2018-12-15T06:15:14.432Z,227.20
2018-12-15T06:17:40.604Z,244.83
2018-12-15T06:20:13.697Z,258.07
2018-12-15T06:22:39.920Z,148.23
2018-12-15T06:25:06.126Z,159.40
2018-12-15T06:27:32.377Z,130.40
2018-12-15T06:29:58.611Z,163.67
2018-12-15T06:32:24.792Z,216.97
2018-12-15T06:34:50.949Z,267.37
2018-12-15T06:37:17.110Z,159.20
2018-12-15T06:39:43.281Z,202.37
2018-12-15T06:42:09.458Z,186.10
2018-12-15T06:44:35.768Z,179.57
2018-12-15T06:47:01.946Z,163.43
2018-12-15T06:49:28.659Z,172.90
2018-12-15T06:51:54.895Z,148.93
2018-12-15T06:54:21.122Z,142.47
2018-12-15T06:56:47.268Z,119.13
2018-12-15T06:59:13.552Z,112.63
2018-12-15T07:01:39.754Z,137.97
2018-12-15T07:04:05.889Z,154.10
2018-12-15T07:06:32.051Z,151.67
2018-12-15T07:08:58.206Z,117.70
2018-12-15T07:11:24.372Z,145.70
2018-12-15T07:13:50.740Z,70.37
2018-12-15T07:16:16.902Z,98.80
2018-12-15T07:18:45.010Z,121.17
2018-12-15T07:21:11.373Z,117.53
2018-12-15T07:23:37.553Z,122.87
2018-12-15T07:26:03.894Z,109.83
2018-12-15T07:28:30.127Z,135.73
2018-12-15T07:30:56.297Z,217.03
2018-12-15T07:33:22.609Z,109.50
2018-12-15T07:35:48.837Z,122.80
2018-12-15T07:38:14.994Z,262.00
2018-12-15T07:40:41.293Z,153.53
2018-12-15T07:43:07.481Z,148.53
2018-12-15T07:45:33.716Z,133.73
2018-12-15T07:47:59.976Z,95.90
2018-12-15T07:50:26.146Z,126.97
2018-12-15T07:52:52.314Z,72.40
2018-12-15T07:55:18.624Z,107.37
2018-12-15T07:57:44.886Z,83.07
2018-12-15T08:00:11.318Z,106.70
2018-12-15T08:02:37.499Z,108.37
2018-12-15T08:05:04.501Z,76.63
2018-12-15T08:07:30.792Z,58.57
2018-12-15T08:09:58.977Z,59.63
2018-12-15T08:12:31.271Z,85.53
2018-12-15T08:14:57.495Z,132.53
2018-12-15T08:17:23.647Z,123.23
2018-12-15T08:19:49.921Z,376.77
2018-12-15T08:22:16.073Z,142.10
2018-12-15T08:24:42.373Z,161.60
2018-12-15T08:27:08.602Z,126.53
2018-12-15T08:29:34.766Z,168.73
2018-12-15T08:32:00.910Z,196.27
2018-12-15T08:34:27.101Z,140.97
2018-12-15T08:36:53.253Z,154.60
2018-12-15T08:39:19.533Z,136.00
2018-12-15T08:41:45.709Z,155.57
2018-12-15T08:44:12.023Z,160.97
2018-12-15T08:46:38.219Z,115.97
2018-12-15T08:49:04.717Z,103.20
2018-12-15T08:51:31.916Z,110.50
2018-12-15T08:53:58.105Z,126.40
2018-12-15T08:56:24.282Z,122.73
2018-12-15T08:58:50.427Z,107.30
2018-12-15T09:01:16.581Z,90.93
2018-12-15T09:03:42.746Z,86.37
2018-12-15T09:06:09.095Z,91.50
2018-12-15T09:08:35.323Z,92.17
2018-12-15T09:11:01.485Z,104.60
2018-12-15T09:13:27.781Z,106.93
2018-12-15T09:15:53.976Z,86.23
2018-12-15T09:18:20.142Z,71.57
2018-12-15T09:20:46.462Z,78.73
2018-12-15T09:23:12.690Z,70.20
2018-12-15T09:25:38.849Z,63.93
2018-12-15T09:28:05.145Z,66.40
2018-12-15T09:30:31.303Z,82.83
2018-12-15T09:32:57.601Z,80.47
2018-12-15T09:35:23.827Z,73.20
2018-12-15T09:37:49.997Z,54.70
2018-12-15T09:40:16.186Z,70.70
2018-12-15T09:42:42.305Z,67.03
2018-12-15T09:45:08.535Z,69.03
2018-12-15T09:47:34.721Z,70.17
2018-12-15T09:50:00.990Z,32.53
2018-12-15T09:52:27.218Z,65.57
2018-12-15T09:54:53.373Z,38.33
2018-12-15T09:57:19.492Z,33.97
2018-12-15T09:59:45.636Z,42.77
2018-12-15T10:02:11.813Z,43.13
2018-12-15T10:04:38.026Z,40.87
2018-12-15T10:07:04.325Z,58.57
2018-12-15T10:09:30.517Z,55.23
2018-12-15T10:11:56.722Z,52.37
2018-12-15T10:14:22.848Z,41.40
2018-12-15T10:16:49.041Z,54.33
2018-12-15T10:19:15.450Z,45.47
2018-12-15T10:21:41.615Z,60.73
2018-12-15T10:24:07.789Z,63.03
2018-12-15T10:26:33.941Z,58.83
2018-12-15T10:29:00.093Z,48.50
2018-12-15T10:31:32.301Z,58.87
2018-12-15T10:33:58.434Z,70.97
2018-12-15T10:36:24.600Z,101.07
2018-12-15T10:38:50.870Z,18.93
2018-12-15T10:41:17.070Z,60.97
2018-12-15T10:43:43.326Z,85.90
2018-12-15T10:46:09.568Z,101.37
2018-12-15T10:48:35.701Z,101.77
2018-12-15T10:51:01.877Z,75.33
2018-12-15T10:53:28.052Z,70.30
2018-12-15T10:55:54.211Z,63.60
2018-12-15T10:58:20.368Z,44.43
2018-12-15T11:00:52.536Z,34.50
2018-12-15T11:03:18.686Z,40.27
2018-12-15T11:05:44.829Z,47.90
2018-12-15T11:08:11.049Z,49.43
2018-12-15T11:10:37.197Z,34.93
2018-12-15T11:13:03.368Z,48.50
2018-12-15T11:15:29.558Z,44.30
2018-12-15T11:17:55.697Z,39.93
2018-12-15T11:20:21.864Z,52.47
2018-12-15T11:22:48.028Z,46.03
2018-12-15T11:25:14.173Z,37.80
2018-12-15T11:27:40.305Z,38.90
2018-12-15T11:30:06.745Z,46.23
2018-12-15T11:32:32.900Z,34.77
2018-12-15T11:34:59.057Z,57.07
2018-12-15T11:37:25.258Z,47.83
2018-12-15T11:39:51.416Z,35.77
2018-12-15T11:42:17.573Z,47.80
2018-12-15T11:44:43.742Z,58.03
2018-12-15T11:47:09.861Z,64.17
2018-12-15T11:49:35.998Z,55.97
2018-12-15T11:52:02.197Z,58.63
2018-12-15T11:54:28.355Z,38.73
2018-12-15T11:56:54.564Z,30.73
2018-12-15T11:59:20.725Z,55.43
2018-12-15T12:01:46.870Z,55.90
2018-12-15T12:04:13.013Z,37.50
2018-12-15T12:06:39.180Z,41.00
2018-12-15T12:09:05.348Z,39.70
2018-12-15T12:11:31.693Z,34.47
2018-12-15T12:14:00.483Z,30.10
2018-12-15T12:16:26.175Z,38.23
2018-12-15T12:18:52.427Z,46.90
2018-12-15T12:21:18.594Z,43.60
2018-12-15T12:23:44.914Z,45.90
2018-12-15T12:26:11.077Z,47.03
2018-12-15T12:28:37.368Z,39.50
2018-12-15T12:31:03.519Z,46.70
2018-12-15T12:33:29.661Z,47.53
2018-12-15T12:35:55.907Z,49.50
2018-12-15T12:38:22.249Z,44.17
2018-12-15T12:40:48.400Z,41.00
2018-12-15T12:43:14.606Z,36.47
2018-12-15T12:45:40.762Z,31.77
2018-12-15T12:48:07.025Z,48.87
2018-12-15T12:50:33.198Z,40.63
2018-12-15T12:52:59.341Z,58.73
2018-12-15T12:55:25.477Z,37.97
2018-12-15T12:57:51.641Z,43.90
2018-12-15T13:00:17.781Z,34.23
2018-12-15T13:02:43.930Z,51.77
2018-12-15T13:05:10.217Z,51.73
2018-12-15T13:07:36.399Z,47.07
2018-12-15T13:10:03.404Z,46.33
2018-12-15T13:12:29.605Z,45.17
2018-12-15T13:14:55.774Z,44.50
2018-12-15T13:17:22.026Z,39.97
2018-12-15T13:19:48.238Z,38.40
2018-12-15T13:22:14.370Z,38.73
2018-12-15T13:24:40.528Z,28.67
2018-12-15T13:27:06.741Z,53.60
2018-12-15T13:29:32.882Z,76.47
2018-12-15T13:31:59.025Z,54.53
2018-12-15T13:34:25.242Z,62.03
2018-12-15T13:36:51.394Z,58.80
2018-12-15T13:39:17.541Z,72.67
2018-12-15T13:41:43.744Z,56.70
2018-12-15T13:44:09.890Z,62.63
2018-12-15T13:46:36.021Z,60.37
2018-12-15T13:49:02.249Z,70.23
2018-12-15T13:51:28.408Z,84.00
2018-12-15T13:53:54.561Z,57.03
2018-12-15T13:56:20.742Z,74.20
2018-12-15T13:58:47.021Z,123.17
2018-12-15T14:01:13.153Z,53.70
2018-12-15T14:03:39.335Z,66.23
2018-12-15T14:06:05.474Z,70.60
2018-12-15T14:08:31.601Z,54.80
2018-12-15T14:10:57.790Z,39.40
2018-12-15T14:13:23.949Z,77.10
2018-12-15T14:15:50.338Z,101.47
2018-12-15T14:18:16.646Z,114.10
2018-12-15T14:20:42.793Z,115.97
2018-12-15T14:23:09.142Z,117.70
2018-12-15T14:25:35.342Z,123.10
2018-12-15T14:28:01.472Z,166.07
2018-12-15T14:30:28.510Z,405.73
2018-12-15T14:32:54.709Z,92.90
2018-12-15T14:35:20.857Z,100.97
2018-12-15T14:37:47.292Z,186.80
2018-12-15T14:40:13.462Z,128.87
2018-12-15T14:42:39.621Z,82.27
2018-12-15T14:45:06.030Z,119.90
2018-12-15T14:47:32.194Z,205.80
2018-12-15T14:49:58.348Z,232.07
2018-12-15T14:52:25.538Z,281.53
2018-12-15T14:54:51.710Z,244.87
2018-12-15T14:57:19.893Z,367.53
2018-12-15T14:59:46.025Z,205.80
2018-12-15T15:02:12.223Z,169.07
2018-12-15T15:04:38.448Z,219.03
2018-12-15T15:07:04.617Z,401.70
2018-12-15T15:09:30.797Z,191.67
2018-12-15T15:11:56.948Z,321.27
2018-12-15T15:14:23.085Z,309.80
2018-12-15T15:16:49.253Z,421.90
2018-12-15T15:19:15.376Z,331.13
2018-12-15T15:21:41.516Z,166.80
2018-12-15T15:24:07.787Z,233.70
2018-12-15T15:26:35.069Z,337.87
2018-12-15T15:29:01.458Z,274.20
2018-12-15T15:31:27.627Z,431.80
2018-12-15T15:33:53.770Z,299.50
2018-12-15T15:36:19.921Z,314.50
2018-12-15T15:38:46.104Z,424.53
2018-12-15T15:41:12.269Z,471.73
2018-12-15T15:43:38.416Z,163.73
2018-12-15T15:46:04.616Z,247.47
2018-12-15T15:48:30.779Z,255.03
2018-12-15T15:50:56.952Z,129.23
2018-12-15T15:53:30.130Z,614.30
2018-12-15T15:55:56.321Z,361.20
2018-12-15T15:58:22.513Z,513.37
2018-12-15T16:00:49.020Z,532.37
2018-12-15T16:03:15.450Z,307.97
2018-12-15T16:05:41.680Z,473.73
2018-12-15T16:08:08.113Z,130.63
2018-12-15T16:10:34.764Z,223.93
2018-12-15T16:13:01.165Z,346.40
2018-12-15T16:15:27.341Z,306.20
2018-12-15T16:17:53.840Z,397.17
2018-12-15T16:20:20.312Z,293.57
2018-12-15T16:22:46.706Z,276.13
2018-12-15T16:25:12.935Z,224.40
2018-12-15T16:27:39.162Z,266.50
2018-12-15T16:30:07.238Z,360.67
2018-12-15T16:32:33.461Z,305.63
2018-12-15T16:34:59.636Z,261.30
2018-12-15T16:37:25.805Z,373.20
2018-12-15T16:39:52.122Z,245.93
2018-12-15T16:42:18.281Z,184.07
2018-12-15T16:44:44.457Z,87.37
2018-12-15T16:47:10.608Z,62.60
2018-12-15T16:49:36.853Z,196.57
2018-12-15T16:52:10.185Z,391.70
2018-12-15T16:54:36.330Z,327.70
2018-12-15T16:57:02.501Z,391.37
2018-12-15T16:59:28.954Z,251.70
2018-12-15T17:01:55.346Z,117.47
2018-12-15T17:04:22.032Z,264.70
2018-12-15T17:06:48.671Z,260.70
2018-12-15T17:09:15.307Z,284.37
2018-12-15T17:11:41.708Z,317.53
2018-12-15T17:14:07.864Z,133.37
2018-12-15T17:16:34.150Z,137.43
2018-12-15T17:19:01.053Z,232.07
2018-12-15T17:21:27.817Z,204.47
2018-12-15T17:23:53.957Z,149.80
2018-12-15T17:26:20.098Z,142.00
2018-12-15T17:28:46.264Z,121.43
2018-12-15T17:31:12.436Z,167.03
2018-12-15T17:33:38.605Z,348.13
2018-12-15T17:36:05.011Z,308.50
2018-12-15T17:38:31.401Z,320.87
2018-12-15T17:40:57.637Z,163.30
2018-12-15T17:43:23.875Z,126.93
2018-12-15T17:45:50.025Z,145.93
2018-12-15T17:48:16.429Z,268.53
2018-12-15T17:50:42.605Z,247.87
2018-12-15T17:53:09.016Z,169.00
2018-12-15T17:55:35.209Z,154.73
2018-12-15T17:58:01.383Z,219.50
2018-12-15T18:00:27.665Z,301.27
2018-12-15T18:02:53.845Z,264.27
2018-12-15T18:05:20.154Z,330.00
2018-12-15T18:07:46.754Z,390.83
2018-12-15T18:10:13.194Z,154.63
2018-12-15T18:12:39.421Z,169.07
2018-12-15T18:15:06.045Z,182.80
2018-12-15T18:17:32.276Z,274.90
2018-12-15T18:19:58.544Z,193.07
2018-12-15T18:22:24.772Z,211.97
2018-12-15T18:24:50.945Z,196.70
2018-12-15T18:27:17.227Z,260.27
2018-12-15T18:29:43.455Z,208.77
2018-12-15T18:32:09.683Z,1300.13
2018-12-15T18:34:35.914Z,308.73
2018-12-15T18:37:02.105Z,297.83
2018-12-15T18:39:28.371Z,244.30
2018-12-15T18:41:54.580Z,372.58
2018-12-15T18:46:57.085Z,238.60
2018-12-15T18:49:23.314Z,145.63
2018-12-15T18:51:49.541Z,151.37
2018-12-15T18:54:16.558Z,115.57
2018-12-15T18:56:43.021Z,197.37
2018-12-15T18:59:09.636Z,166.67
2018-12-15T19:01:35.881Z,209.27
2018-12-15T19:04:02.284Z,304.47
2018-12-15T19:06:28.447Z,278.43
2018-12-15T19:08:54.746Z,288.13
2018-12-15T19:11:20.901Z,376.40
2018-12-15T19:13:47.197Z,448.93
2018-12-15T19:16:13.425Z,149.17
2018-12-15T19:18:39.613Z,274.80
2018-12-15T19:21:05.881Z,438.03
2018-12-15T19:23:32.086Z,278.63
2018-12-15T19:25:58.270Z,294.60
2018-12-15T19:28:24.560Z,113.03
2018-12-15T19:30:50.745Z,366.70
2018-12-15T19:33:16.905Z,303.03
2018-12-15T19:35:43.249Z,225.37
2018-12-15T19:38:09.418Z,206.33
2018-12-15T19:40:35.737Z,123.37
2018-12-15T19:43:01.866Z,80.60
2018-12-15T19:45:28.052Z,71.97
2018-12-15T19:47:54.214Z,108.60
2018-12-15T19:50:20.412Z,283.90
2018-12-15T19:52:46.670Z,153.90
2018-12-15T19:55:12.821Z,288.70
2018-12-15T19:57:39.097Z,188.77
2018-12-15T20:00:07.366Z,168.90
2018-12-15T20:02:33.833Z,127.83
2018-12-15T20:04:59.986Z,116.33
2018-12-15T20:07:26.279Z,183.07
2018-12-15T20:09:52.930Z,124.00
2018-12-15T20:12:19.154Z,92.90
2018-12-15T20:14:45.357Z,129.60
2018-12-15T20:17:11.578Z,337.33
2018-12-15T20:19:37.806Z,311.67
2018-12-15T20:22:04.033Z,321.97
2018-12-15T20:24:30.186Z,97.47
2018-12-15T20:26:56.321Z,260.80
2018-12-15T20:29:22.749Z,167.30
2018-12-15T20:31:48.884Z,140.30
2018-12-15T20:34:15.177Z,282.87
2018-12-15T20:36:41.364Z,223.83
2018-12-15T20:39:07.494Z,379.50
2018-12-15T20:41:33.710Z,255.90
2018-12-15T20:44:00.116Z,226.73
2018-12-15T20:46:26.257Z,149.20
2018-12-15T20:48:52.409Z,73.60
2018-12-15T20:51:18.799Z,66.87
2018-12-15T20:53:45.029Z,87.17
2018-12-15T20:56:11.255Z,53.13
2018-12-15T20:58:37.455Z,85.10
2018-12-15T21:01:03.714Z,54.23
2018-12-15T21:03:29.938Z,31.23
2018-12-15T21:06:03.397Z,36.73
2018-12-15T21:08:29.610Z,29.73
2018-12-15T21:10:55.745Z,0.10
2018-12-15T21:13:21.910Z,0.03
2018-12-15T21:15:50.124Z,0.10
2018-12-15T21:18:16.317Z,0.00
2018-12-15T21:20:42.545Z,0.10
2018-12-15T21:23:08.774Z,0.00
2018-12-15T21:25:34.900Z,0.10
2018-12-15T21:28:01.228Z,0.00
2018-12-15T21:30:27.661Z,5.23
2018-12-15T21:32:53.889Z,0.00
2018-12-15T21:35:20.733Z,0.23
2018-12-15T21:37:47.368Z,0.10
2018-12-15T21:40:14.008Z,0.00
2018-12-15T21:42:40.848Z,0.00
2018-12-15T21:45:07.484Z,0.00
2018-12-15T21:47:34.124Z,0.10
2018-12-15T21:50:00.554Z,0.10
2018-12-15T21:52:26.961Z,0.10
2018-12-15T21:54:53.625Z,0.00
2018-12-15T21:57:19.813Z,0.00
2018-12-15T21:59:46.081Z,0.10
2018-12-15T22:02:12.309Z,0.00
2018-12-15T22:04:38.711Z,0.10
2018-12-15T22:07:04.853Z,0.10
2018-12-15T22:09:30.996Z,0.10
2018-12-15T22:11:57.629Z,0.10
2018-12-15T22:14:24.183Z,0.10
2018-12-15T22:16:52.045Z,0.80
2018-12-15T22:19:20.032Z,0.00
2018-12-15T22:21:46.432Z,0.10
2018-12-15T22:24:12.568Z,5.80
2018-12-15T22:26:38.859Z,0.10
2018-12-15T22:29:05.006Z,0.10
2018-12-15T22:31:31.343Z,0.00
2018-12-15T22:33:57.506Z,0.20
2018-12-15T22:36:25.195Z,0.10
2018-12-15T22:38:53.097Z,0.10
2018-12-15T22:41:19.735Z,0.10
2018-12-15T22:43:46.579Z,0.10
2018-12-15T22:46:12.749Z,0.00
2018-12-15T22:48:38.921Z,0.10
2018-12-15T22:51:05.231Z,0.10
2018-12-15T22:53:31.489Z,0.10
2018-12-15T22:55:57.687Z,0.10
2018-12-15T22:58:23.943Z,0.10
2018-12-15T23:00:56.429Z,0.20
2018-12-15T23:03:23.159Z,0.10
2018-12-15T23:05:49.356Z,0.10
2018-12-15T23:08:15.582Z,0.00
2018-12-15T23:10:41.744Z,0.10
2018-12-15T23:13:15.032Z,0.00
2018-12-15T23:15:41.182Z,0.30
2018-12-15T23:18:07.488Z,0.10
2018-12-15T23:20:33.925Z,0.10
2018-12-15T23:23:00.148Z,0.23
2018-12-15T23:25:26.328Z,0.10
2018-12-15T23:27:52.476Z,0.10
2018-12-15T23:30:18.742Z,0.10
2018-12-15T23:32:45.057Z,1.07
2018-12-15T23:35:11.492Z,0.20
2018-12-15T23:37:37.719Z,0.10
2018-12-15T23:40:05.356Z,0.10
2018-12-15T23:42:31.608Z,0.10
2018-12-15T23:44:58.013Z,0.00
2018-12-15T23:47:24.269Z,0.10
2018-12-15T23:49:50.404Z,0.00
2018-12-15T23:52:23.110Z,0.10
2018-12-15T23:54:44.751Z,0.10
2018-12-15T23:57:10.898Z,0.10
2018-12-15T23:59:37.250Z,30.47
